createdAt,value
2023-04-22T00:03:23.026Z,27.80
2023-04-22T00:08:26.250Z,27.80
2023-04-22T00:13:29.242Z,25.00
2023-04-22T00:18:36.226Z,24.90
2023-04-22T00:23:39.081Z,29.90
2023-04-22T00:28:41.889Z,24.90
2023-04-22T00:33:44.835Z,27.60
2023-04-22T00:38:50.578Z,24.80
2023-04-22T00:43:53.713Z,29.10
2023-04-22T00:48:56.773Z,23.50
2023-04-22T00:54:02.061Z,25.20
2023-04-22T00:59:05.050Z,21.60
2023-04-22T01:04:08.891Z,25.00
2023-04-22T01:09:11.973Z,22.00
2023-04-22T01:14:15.476Z,22.90
2023-04-22T01:19:18.397Z,21.50
2023-04-22T01:24:21.565Z,21.80
2023-04-22T01:29:24.398Z,23.10
2023-04-22T01:34:27.238Z,19.60
2023-04-22T01:39:30.377Z,21.40
2023-04-22T01:44:33.259Z,20.70
2023-04-22T01:49:36.177Z,20.10
2023-04-22T01:54:39.156Z,21.60
2023-04-22T01:59:42.240Z,19.10
2023-04-22T02:04:45.338Z,20.30
2023-04-22T02:09:50.298Z,22.40
2023-04-22T02:14:53.986Z,22.30
2023-04-22T02:19:57.064Z,22.40
2023-04-22T02:25:00.137Z,20.40
2023-04-22T02:30:04.027Z,21.60
2023-04-22T02:35:07.757Z,22.00
2023-04-22T02:40:11.627Z,21.40
2023-04-22T02:45:14.594Z,22.40
2023-04-22T02:50:17.521Z,21.90
2023-04-22T02:55:22.069Z,21.60
2023-04-22T03:00:24.939Z,19.60
2023-04-22T03:05:28.201Z,22.30
2023-04-22T03:10:32.656Z,23.60
2023-04-22T03:15:35.735Z,19.00
2023-04-22T03:20:38.627Z,22.30
2023-04-22T03:25:41.783Z,22.30
2023-04-22T03:30:44.777Z,20.60
2023-04-22T03:35:51.121Z,22.40
2023-04-22T03:40:54.061Z,19.90
2023-04-22T03:45:57.367Z,18.80
2023-04-22T03:51:00.470Z,21.40
2023-04-22T03:56:03.571Z,21.70
2023-04-22T04:01:06.606Z,21.30
2023-04-22T04:06:09.531Z,19.90
2023-04-22T04:11:12.383Z,18.60
2023-04-22T04:16:16.705Z,21.90
2023-04-22T04:21:19.691Z,22.30
2023-04-22T04:26:24.125Z,20.30
2023-04-22T04:31:30.309Z,21.60
2023-04-22T04:36:33.318Z,20.10
2023-04-22T04:41:36.240Z,17.20
2023-04-22T04:46:39.577Z,19.00
2023-04-22T04:51:42.446Z,17.00
2023-04-22T04:56:45.375Z,17.20
2023-04-22T05:01:48.305Z,16.90
2023-04-22T05:06:51.204Z,15.00
2023-04-22T05:11:53.995Z,17.40
2023-04-22T05:16:57.017Z,16.80
2023-04-22T05:22:00.054Z,16.20
2023-04-22T05:27:02.898Z,13.60
2023-04-22T05:32:08.288Z,15.30
2023-04-22T05:37:11.238Z,13.70
2023-04-22T05:42:14.162Z,13.20
2023-04-22T05:47:17.151Z,12.90
2023-04-22T05:52:20.015Z,11.70
2023-04-22T05:57:22.972Z,13.30
2023-04-22T06:02:25.980Z,11.80
2023-04-22T06:07:29.247Z,13.20
2023-04-22T06:12:34.637Z,13.20
2023-04-22T06:17:37.585Z,13.90
2023-04-22T06:22:40.491Z,12.70
2023-04-22T06:27:43.343Z,12.40
2023-04-22T06:32:46.264Z,11.90
2023-04-22T06:37:49.208Z,12.20
2023-04-22T06:42:52.066Z,11.20
2023-04-22T06:47:54.992Z,13.80
2023-04-22T06:52:58.133Z,13.60
2023-04-22T06:58:01.086Z,11.70
2023-04-22T07:03:04.008Z,11.60
2023-04-22T07:08:07.270Z,10.90
2023-04-22T07:13:10.507Z,13.20
2023-04-22T07:18:13.383Z,12.10
2023-04-22T07:23:16.308Z,11.80
2023-04-22T07:28:19.170Z,15.30
2023-04-22T07:33:22.130Z,10.60
2023-04-22T07:38:25.832Z,10.00
2023-04-22T07:43:29.111Z,10.40
2023-04-22T07:48:32.012Z,9.40
2023-04-22T07:53:34.884Z,11.40
2023-04-22T07:58:37.727Z,6.50
2023-04-22T08:03:41.029Z,7.40
2023-04-22T08:08:44.151Z,7.00
2023-04-22T08:13:47.371Z,4.10
2023-04-22T08:18:52.206Z,6.10
2023-04-22T08:23:55.225Z,5.20
2023-04-22T08:28:58.129Z,8.10
2023-04-22T08:34:01.496Z,3.50
2023-04-22T08:39:04.348Z,4.30
2023-04-22T08:44:08.037Z,5.70
2023-04-22T08:49:11.019Z,6.20
2023-04-22T08:54:13.906Z,6.20
2023-04-22T08:59:16.827Z,4.80
2023-04-22T09:04:19.960Z,3.80
2023-04-22T09:09:23.564Z,4.90
2023-04-22T09:14:26.781Z,4.00
2023-04-22T09:19:29.763Z,5.30
2023-04-22T09:24:32.599Z,3.60
2023-04-22T09:29:35.578Z,4.80
2023-04-22T09:34:53.197Z,4.50
2023-04-22T09:39:56.084Z,5.50
2023-04-22T09:45:01.292Z,7.40
2023-04-22T09:50:05.253Z,5.00
2023-04-22T09:55:08.962Z,7.00
2023-04-22T10:00:15.152Z,5.40
2023-04-22T10:05:18.278Z,5.00
2023-04-22T10:10:21.398Z,4.70
2023-04-22T10:15:26.986Z,7.00
2023-04-22T10:20:30.526Z,5.40
2023-04-22T10:25:33.496Z,4.40
2023-04-22T10:30:38.825Z,5.90
2023-04-22T10:35:41.810Z,5.80
2023-04-22T10:41:00.438Z,6.10
2023-04-22T10:46:03.553Z,4.10
2023-04-22T10:51:06.460Z,4.00
2023-04-22T10:56:18.264Z,5.30
2023-04-22T11:01:21.341Z,3.70
2023-04-22T11:06:27.848Z,3.40
2023-04-22T11:11:30.834Z,6.60
2023-04-22T11:16:34.461Z,5.30
2023-04-22T11:21:37.270Z,5.50
2023-04-22T11:26:41.507Z,3.50
2023-04-22T11:31:47.294Z,3.20
2023-04-22T11:36:50.233Z,3.70
2023-04-22T11:41:53.061Z,4.30
2023-04-22T11:46:57.387Z,2.60
2023-04-22T11:52:00.364Z,3.20
2023-04-22T11:57:08.560Z,3.80
2023-04-22T12:02:11.979Z,2.40
2023-04-22T12:07:15.346Z,2.70
2023-04-22T12:12:18.240Z,3.40
2023-04-22T12:17:24.630Z,3.00
2023-04-22T12:22:29.847Z,4.80
2023-04-22T12:27:34.111Z,3.00
2023-04-22T12:32:36.985Z,1.80
2023-04-22T12:37:39.869Z,3.70
2023-04-22T12:42:42.858Z,3.80
2023-04-22T12:47:47.137Z,4.70
2023-04-22T12:52:50.278Z,2.10
2023-04-22T12:57:53.183Z,3.50
2023-04-22T13:02:56.608Z,4.30
2023-04-22T13:08:07.060Z,2.10
2023-04-22T13:13:18.406Z,3.00
2023-04-22T13:18:23.392Z,5.80
2023-04-22T13:23:27.135Z,2.00
2023-04-22T13:28:31.658Z,4.20
2023-04-22T13:33:34.586Z,6.20
2023-04-22T13:38:37.510Z,3.70
2023-04-22T13:43:40.592Z,6.30
2023-04-22T13:48:43.364Z,5.90
2023-04-22T13:53:46.271Z,5.90
2023-04-22T13:58:49.170Z,4.50
2023-04-22T14:03:52.380Z,4.40
2023-04-22T14:08:55.355Z,3.80
2023-04-22T14:13:58.342Z,4.00
2023-04-22T14:19:02.863Z,3.60
2023-04-22T14:24:05.933Z,4.00
2023-04-22T14:29:08.832Z,5.90
2023-04-22T14:34:12.800Z,4.10
2023-04-22T14:39:15.925Z,4.60
2023-04-22T14:44:18.753Z,3.20
2023-04-22T14:49:21.579Z,4.20
2023-04-22T14:54:24.376Z,2.80
2023-04-22T14:59:27.862Z,4.10
2023-04-22T15:04:31.006Z,6.00
2023-04-22T15:09:33.992Z,3.70
2023-04-22T15:14:37.162Z,4.60
2023-04-22T15:19:40.993Z,4.00
2023-04-22T15:24:44.297Z,4.50
2023-04-22T15:29:47.530Z,5.40
2023-04-22T15:34:50.659Z,3.70
2023-04-22T15:39:53.482Z,4.90
2023-04-22T15:44:56.542Z,4.10
2023-04-22T15:50:06.162Z,4.70
2023-04-22T15:55:10.189Z,3.60
2023-04-22T16:00:14.398Z,5.60
2023-04-22T16:05:17.338Z,4.20
2023-04-22T16:10:20.584Z,5.30
2023-04-22T16:15:26.192Z,5.10
2023-04-22T16:20:29.723Z,4.80
2023-04-22T16:25:32.624Z,3.90
2023-04-22T16:30:35.487Z,6.60
2023-04-22T16:35:38.584Z,5.30
2023-04-22T16:40:41.494Z,4.80
2023-04-22T16:45:44.400Z,3.90
2023-04-22T16:50:47.370Z,4.50
2023-04-22T16:55:50.322Z,5.10
2023-04-22T17:00:53.391Z,7.40
2023-04-22T17:05:56.209Z,4.30
2023-04-22T17:10:59.468Z,5.20
2023-04-22T17:16:02.432Z,7.70
2023-04-22T17:21:05.396Z,4.30
2023-04-22T17:26:08.699Z,6.70
2023-04-22T17:31:12.269Z,8.30
2023-04-22T17:36:15.469Z,7.20
2023-04-22T17:41:18.673Z,9.20
2023-04-22T17:46:21.750Z,7.70
2023-04-22T17:51:24.652Z,7.80
2023-04-22T17:56:27.637Z,5.90
2023-04-22T18:01:30.595Z,6.80
2023-04-22T18:06:33.544Z,5.70
2023-04-22T18:11:36.376Z,8.70
2023-04-22T18:16:39.334Z,5.60
2023-04-22T18:21:52.975Z,7.20
2023-04-22T18:27:02.879Z,5.90
2023-04-22T18:32:05.804Z,6.80
2023-04-22T18:37:08.785Z,9.00
2023-04-22T18:42:11.660Z,7.80
2023-04-22T18:47:14.677Z,12.50
2023-04-22T18:52:17.966Z,10.80
2023-04-22T18:57:21.201Z,12.90
2023-04-22T19:02:24.189Z,10.70
2023-04-22T19:07:27.074Z,12.60
2023-04-22T19:12:29.936Z,9.80
2023-04-22T19:17:33.753Z,10.70
2023-04-22T19:22:36.696Z,10.90
2023-04-22T19:27:39.701Z,12.30
2023-04-22T19:32:42.678Z,13.90
2023-04-22T19:37:45.869Z,17.80
2023-04-22T19:42:48.822Z,18.10
2023-04-22T19:47:52.179Z,18.10
2023-04-22T19:53:03.629Z,15.00
2023-04-22T19:58:06.828Z,18.20
2023-04-22T20:03:10.300Z,16.40
2023-04-22T20:08:13.351Z,16.50
2023-04-22T20:13:17.037Z,13.50
2023-04-22T20:18:20.191Z,12.30
2023-04-22T20:23:24.542Z,16.40
2023-04-22T20:28:41.718Z,19.00
2023-04-22T20:33:44.868Z,15.40
2023-04-22T20:38:49.099Z,12.70
2023-04-22T20:43:52.698Z,14.70
2023-04-22T20:48:55.531Z,16.70
2023-04-22T20:53:58.519Z,18.00
2023-04-22T20:59:01.753Z,19.80
2023-04-22T21:04:05.011Z,17.80
2023-04-22T21:09:09.061Z,17.20
2023-04-22T21:14:12.009Z,16.20
2023-04-22T21:19:15.076Z,16.80
2023-04-22T21:24:17.900Z,16.90
2023-04-22T21:29:21.256Z,21.30
2023-04-22T21:34:24.186Z,20.70
2023-04-22T21:39:27.170Z,18.60
2023-04-22T21:44:30.054Z,24.50
2023-04-22T21:49:32.890Z,23.50
2023-04-22T21:54:35.784Z,21.40
2023-04-22T21:59:38.572Z,22.00
2023-04-22T22:04:41.847Z,20.60
2023-04-22T22:09:45.417Z,28.30
2023-04-22T22:14:48.244Z,32.60
2023-04-22T22:19:51.516Z,32.90
2023-04-22T22:24:54.518Z,34.60
2023-04-22T22:29:57.400Z,33.20
2023-04-22T22:35:00.530Z,29.10
2023-04-22T22:40:04.462Z,33.90
2023-04-22T22:45:08.344Z,37.50
2023-04-22T22:50:11.622Z,36.80
2023-04-22T22:55:14.480Z,36.40
2023-04-22T23:00:18.563Z,38.10
2023-04-22T23:05:21.737Z,35.90
2023-04-22T23:10:24.636Z,33.90
2023-04-22T23:15:27.556Z,34.20
2023-04-22T23:20:30.835Z,33.30
2023-04-22T23:25:34.244Z,32.70
2023-04-22T23:30:37.530Z,33.00
2023-04-22T23:35:41.458Z,33.40
2023-04-22T23:40:44.371Z,33.50
2023-04-22T23:45:47.166Z,32.20
2023-04-22T23:50:50.115Z,35.20
2023-04-22T23:55:53.400Z,32.50
